createdAt,value
2022-11-19T00:00:03.481Z,21.90
2022-11-19T00:02:58.065Z,19.20
2022-11-19T00:05:30.061Z,21.00
2022-11-19T00:08:02.152Z,58.10
2022-11-19T00:10:36.343Z,124.10
2022-11-19T00:13:08.869Z,50.20
2022-11-19T00:15:41.268Z,29.60
2022-11-19T00:18:13.232Z,19.50
2022-11-19T00:20:45.068Z,16.80
2022-11-19T00:23:17.348Z,12.10
2022-11-19T00:25:49.277Z,11.40
2022-11-19T00:28:21.266Z,12.80
2022-11-19T00:30:53.278Z,14.60
2022-11-19T00:33:25.576Z,13.70
2022-11-19T00:36:00.203Z,14.00
2022-11-19T00:38:33.138Z,15.70
2022-11-19T00:41:05.563Z,13.30
2022-11-19T00:43:51.119Z,12.10
2022-11-19T00:46:25.447Z,16.10
2022-11-19T00:48:59.658Z,17.20
2022-11-19T00:51:32.591Z,15.50
2022-11-19T00:54:04.667Z,13.60
2022-11-19T00:56:36.623Z,14.40
2022-11-19T00:59:08.787Z,13.50
2022-11-19T01:01:40.781Z,13.00
2022-11-19T01:04:13.176Z,14.50
2022-11-19T01:06:45.215Z,11.30
2022-11-19T01:09:17.227Z,12.20
2022-11-19T01:11:49.807Z,11.90
2022-11-19T01:14:22.130Z,11.00
2022-11-19T01:16:54.170Z,10.50
2022-11-19T01:19:26.084Z,10.70
2022-11-19T01:21:58.327Z,10.60
2022-11-19T01:24:30.495Z,10.80
2022-11-19T01:27:02.744Z,11.20
2022-11-19T01:29:34.755Z,11.30
2022-11-19T01:32:06.928Z,12.30
2022-11-19T01:34:38.947Z,13.40
2022-11-19T01:37:11.594Z,16.30
2022-11-19T01:39:43.505Z,14.70
2022-11-19T01:42:40.453Z,13.00
2022-11-19T01:45:25.681Z,13.70
2022-11-19T01:48:01.124Z,13.40
2022-11-19T01:50:35.392Z,13.30
2022-11-19T01:53:09.494Z,13.80
2022-11-19T01:55:43.163Z,13.20
2022-11-19T01:58:19.396Z,13.90
2022-11-19T02:00:51.719Z,15.70
2022-11-19T02:03:24.270Z,14.40
2022-11-19T02:05:56.952Z,15.70
2022-11-19T02:08:42.022Z,16.50
2022-11-19T02:11:49.980Z,14.70
2022-11-19T02:14:33.642Z,14.90
2022-11-19T02:17:14.695Z,14.30
2022-11-19T02:20:20.501Z,15.60
2022-11-19T02:23:12.228Z,14.90
2022-11-19T02:26:06.798Z,15.50
2022-11-19T02:28:44.418Z,16.20
2022-11-19T02:31:21.858Z,15.10
2022-11-19T02:34:01.375Z,15.30
2022-11-19T02:36:40.320Z,13.90
2022-11-19T02:39:19.194Z,14.00
2022-11-19T02:41:57.782Z,15.30
2022-11-19T02:44:53.823Z,14.70
2022-11-19T02:47:30.214Z,19.10
2022-11-19T02:50:09.170Z,17.00
2022-11-19T02:52:46.659Z,15.30
2022-11-19T02:55:22.158Z,16.70
2022-11-19T02:58:00.035Z,16.80
2022-11-19T03:01:00.698Z,34.20
2022-11-19T03:03:51.913Z,61.60
2022-11-19T03:06:32.771Z,98.00
2022-11-19T03:09:05.106Z,93.50
2022-11-19T03:11:37.094Z,70.10
2022-11-19T03:14:35.095Z,57.80
2022-11-19T03:17:16.453Z,45.30
2022-11-19T03:19:57.426Z,32.60
2022-11-19T03:22:34.405Z,27.50
2022-11-19T03:25:10.185Z,27.90
2022-11-19T03:27:44.786Z,31.40
2022-11-19T03:30:18.870Z,26.50
2022-11-19T03:32:55.581Z,26.20
2022-11-19T03:35:31.909Z,21.40
2022-11-19T03:38:08.650Z,25.60
2022-11-19T03:40:43.317Z,25.00
2022-11-19T03:43:19.685Z,25.30
2022-11-19T03:45:55.281Z,37.60
2022-11-19T03:48:29.216Z,27.50
2022-11-19T03:51:07.092Z,34.30
2022-11-19T03:53:39.107Z,35.20
2022-11-19T03:56:14.399Z,40.00
2022-11-19T03:58:48.128Z,30.50
2022-11-19T04:01:20.029Z,25.90
2022-11-19T04:04:05.981Z,25.10
2022-11-19T04:06:38.024Z,25.10
2022-11-19T04:09:09.986Z,26.40
2022-11-19T04:11:43.589Z,22.70
2022-11-19T04:14:15.499Z,22.90
2022-11-19T04:16:47.542Z,39.50
2022-11-19T04:19:19.760Z,21.30
2022-11-19T04:21:52.336Z,31.00
2022-11-19T04:24:24.505Z,20.00
2022-11-19T04:26:56.575Z,22.70
2022-11-19T04:29:28.687Z,24.00
2022-11-19T04:32:00.653Z,32.60
2022-11-19T04:34:32.621Z,25.60
2022-11-19T04:37:04.839Z,21.30
2022-11-19T04:39:36.852Z,24.90
2022-11-19T04:42:09.119Z,27.00
2022-11-19T04:44:41.212Z,21.20
2022-11-19T04:47:13.276Z,20.10
2022-11-19T04:49:45.316Z,19.80
2022-11-19T04:52:17.310Z,18.80
2022-11-19T04:54:49.319Z,19.50
2022-11-19T04:57:21.290Z,19.90
2022-11-19T04:59:53.228Z,19.80
2022-11-19T05:02:25.364Z,18.00
2022-11-19T05:04:57.278Z,18.60
2022-11-19T05:07:29.255Z,32.80
2022-11-19T05:10:01.204Z,19.80
2022-11-19T05:12:33.139Z,18.70
2022-11-19T05:15:05.417Z,21.30
2022-11-19T05:17:37.683Z,22.90
2022-11-19T05:20:11.709Z,24.10
2022-11-19T05:22:43.684Z,20.70
2022-11-19T05:25:15.620Z,22.90
2022-11-19T05:27:47.687Z,22.30
2022-11-19T05:30:20.109Z,30.70
2022-11-19T05:32:52.104Z,25.80
2022-11-19T05:35:24.088Z,26.90
2022-11-19T05:37:56.414Z,32.80
2022-11-19T05:40:28.940Z,23.00
2022-11-19T05:43:06.431Z,37.00
2022-11-19T05:45:38.675Z,42.10
2022-11-19T05:48:10.715Z,30.70
2022-11-19T05:50:43.579Z,34.30
2022-11-19T05:53:15.742Z,45.20
2022-11-19T05:55:47.732Z,87.90
2022-11-19T05:58:19.746Z,27.10
2022-11-19T06:00:57.319Z,49.60
2022-11-19T06:03:29.382Z,22.50
2022-11-19T06:06:01.552Z,18.80
2022-11-19T06:08:33.828Z,18.20
2022-11-19T06:11:06.168Z,16.50
2022-11-19T06:13:38.233Z,22.40
2022-11-19T06:16:10.453Z,19.70
2022-11-19T06:18:42.521Z,18.10
2022-11-19T06:21:14.508Z,15.00
2022-11-19T06:23:46.445Z,28.00
2022-11-19T06:26:26.533Z,29.90
2022-11-19T06:28:59.135Z,31.60
2022-11-19T06:31:31.426Z,40.20
2022-11-19T06:34:03.464Z,37.80
2022-11-19T06:36:40.946Z,39.30
2022-11-19T06:39:14.875Z,50.10
2022-11-19T06:41:48.881Z,35.40
2022-11-19T06:44:21.497Z,38.10
2022-11-19T06:46:53.572Z,26.70
2022-11-19T06:49:26.020Z,26.90
2022-11-19T06:51:58.142Z,25.80
2022-11-19T06:54:30.204Z,26.00
2022-11-19T06:57:02.143Z,23.30
2022-11-19T06:59:35.188Z,20.10
2022-11-19T07:02:07.927Z,25.90
2022-11-19T07:04:40.136Z,25.70
2022-11-19T07:07:12.611Z,27.20
2022-11-19T07:09:44.910Z,46.20
2022-11-19T07:12:16.946Z,42.80
2022-11-19T07:14:48.859Z,34.70
2022-11-19T07:17:21.537Z,23.00
2022-11-19T07:19:53.542Z,23.90
2022-11-19T07:22:25.489Z,22.50
2022-11-19T07:24:57.556Z,24.20
2022-11-19T07:27:29.596Z,27.80
2022-11-19T07:30:02.327Z,21.50
2022-11-19T07:32:34.342Z,22.20
2022-11-19T07:35:07.386Z,60.10
2022-11-19T07:37:40.137Z,29.30
2022-11-19T07:40:16.876Z,26.30
2022-11-19T07:42:51.744Z,20.10
2022-11-19T07:47:55.569Z,29.30
2022-11-19T07:50:27.558Z,29.10
2022-11-19T07:53:02.772Z,36.80
2022-11-19T07:55:34.767Z,28.70
2022-11-19T07:58:06.748Z,36.60
2022-11-19T08:00:38.715Z,27.50
2022-11-19T08:03:11.459Z,22.80
2022-11-19T08:05:43.820Z,25.80
2022-11-19T08:08:15.884Z,25.90
2022-11-19T08:10:47.770Z,24.30
2022-11-19T08:13:19.735Z,43.60
2022-11-19T08:15:51.673Z,44.50
2022-11-19T08:18:27.237Z,20.70
2022-11-19T08:21:08.019Z,36.20
2022-11-19T08:23:40.797Z,30.00
2022-11-19T08:26:12.787Z,29.50
2022-11-19T08:28:44.681Z,34.30
2022-11-19T08:31:17.125Z,27.10
2022-11-19T08:33:49.163Z,29.80
2022-11-19T08:36:21.511Z,24.80
2022-11-19T08:38:53.422Z,19.60
2022-11-19T08:41:43.250Z,23.70
2022-11-19T08:44:16.089Z,25.60
2022-11-19T08:46:48.194Z,24.20
2022-11-19T08:49:20.480Z,33.70
2022-11-19T08:51:52.465Z,21.80
2022-11-19T08:54:24.992Z,25.90
2022-11-19T08:56:56.982Z,30.40
2022-11-19T08:59:28.946Z,31.30
2022-11-19T09:02:00.806Z,26.20
2022-11-19T09:04:32.922Z,26.70
2022-11-19T09:07:04.872Z,26.80
2022-11-19T09:09:36.797Z,24.40
2022-11-19T09:12:11.355Z,26.10
2022-11-19T09:14:43.284Z,21.60
2022-11-19T09:17:15.300Z,31.90
2022-11-19T09:19:47.211Z,19.90
2022-11-19T09:22:19.455Z,20.90
2022-11-19T09:24:51.624Z,20.70
2022-11-19T09:27:23.669Z,16.70
2022-11-19T09:29:55.551Z,17.80
2022-11-19T09:32:28.666Z,22.10
2022-11-19T09:35:00.631Z,21.40
2022-11-19T09:37:34.284Z,21.20
2022-11-19T09:40:08.477Z,19.50
2022-11-19T09:42:46.711Z,27.80
2022-11-19T09:45:27.305Z,23.30
2022-11-19T09:48:17.157Z,22.70
2022-11-19T09:50:55.833Z,23.00
2022-11-19T09:53:32.172Z,25.40
2022-11-19T09:56:04.799Z,18.50
2022-11-19T09:58:41.475Z,18.20
2022-11-19T10:01:17.442Z,26.60
2022-11-19T10:03:53.315Z,18.20
2022-11-19T10:06:36.439Z,28.70
2022-11-19T10:09:37.172Z,22.30
2022-11-19T10:12:21.296Z,28.20
2022-11-19T10:15:13.288Z,30.10
2022-11-19T10:17:59.373Z,19.20
2022-11-19T10:20:54.199Z,23.40
2022-11-19T10:23:45.593Z,17.60
2022-11-19T10:26:19.477Z,21.80
2022-11-19T10:28:57.788Z,18.30
2022-11-19T10:31:35.766Z,18.90
2022-11-19T10:34:14.413Z,46.00
2022-11-19T10:36:52.023Z,17.10
2022-11-19T10:39:28.834Z,18.20
2022-11-19T10:42:08.248Z,34.20
2022-11-19T10:44:43.745Z,31.20
2022-11-19T10:47:22.447Z,31.80
2022-11-19T10:49:56.536Z,18.40
2022-11-19T10:52:33.536Z,19.40
2022-11-19T10:55:23.118Z,16.30
2022-11-19T10:58:06.811Z,16.90
2022-11-19T11:00:42.039Z,18.70
2022-11-19T11:03:23.094Z,18.00
2022-11-19T11:06:05.430Z,21.00
2022-11-19T11:08:50.547Z,22.40
2022-11-19T11:11:49.979Z,16.70
2022-11-19T11:14:41.868Z,24.90
2022-11-19T11:17:20.764Z,26.60
2022-11-19T11:20:04.858Z,25.30
2022-11-19T11:22:38.255Z,23.20
2022-11-19T11:25:22.534Z,30.90
2022-11-19T11:28:08.884Z,20.00
2022-11-19T11:30:52.265Z,23.70
2022-11-19T11:33:33.567Z,21.10
2022-11-19T11:36:09.486Z,19.00
2022-11-19T11:38:47.713Z,19.40
2022-11-19T11:44:23.340Z,22.50
2022-11-19T11:46:58.624Z,23.40
2022-11-19T11:49:35.204Z,20.10
2022-11-19T11:52:20.402Z,14.60
2022-11-19T11:55:01.191Z,17.20
2022-11-19T11:57:34.692Z,20.50
2022-11-19T12:00:36.836Z,23.90
2022-11-19T12:03:13.049Z,24.90
2022-11-19T12:05:53.770Z,23.80
2022-11-19T12:08:44.166Z,29.10
2022-11-19T12:11:21.813Z,49.20
2022-11-19T12:14:09.522Z,26.80
2022-11-19T12:16:52.614Z,15.70
2022-11-19T12:19:41.582Z,18.30
2022-11-19T12:22:23.423Z,30.60
2022-11-19T12:25:10.160Z,25.00
2022-11-19T12:27:50.314Z,20.00
2022-11-19T12:30:24.877Z,20.60
2022-11-19T12:33:21.896Z,30.50
2022-11-19T12:36:05.066Z,20.10
2022-11-19T12:38:47.482Z,14.10
2022-11-19T12:41:50.312Z,21.50
2022-11-19T12:44:37.178Z,17.20
2022-11-19T12:47:22.911Z,16.80
2022-11-19T12:50:11.438Z,17.40
2022-11-19T12:53:04.726Z,19.50
2022-11-19T12:55:42.860Z,37.10
2022-11-19T12:58:23.525Z,37.10
2022-11-19T13:00:59.726Z,46.90
2022-11-19T13:03:45.833Z,38.70
2022-11-19T13:06:23.150Z,38.80
2022-11-19T13:09:00.156Z,38.30
2022-11-19T13:11:37.600Z,56.80
2022-11-19T13:14:19.287Z,57.50
2022-11-19T13:16:53.454Z,45.00
2022-11-19T13:19:28.694Z,79.80
2022-11-19T13:22:05.501Z,52.90
2022-11-19T13:24:42.708Z,38.10
2022-11-19T13:27:22.964Z,27.80
2022-11-19T13:30:01.660Z,18.70
2022-11-19T13:32:41.535Z,19.60
2022-11-19T13:35:21.558Z,23.10
2022-11-19T13:38:01.310Z,25.00
2022-11-19T13:40:38.469Z,37.50
2022-11-19T13:43:33.009Z,127.80
2022-11-19T13:46:16.671Z,122.80
2022-11-19T13:48:55.193Z,194.30
2022-11-19T13:51:34.481Z,51.80
2022-11-19T13:54:08.541Z,60.90
2022-11-19T13:56:47.467Z,63.10
2022-11-19T13:59:32.514Z,40.30
2022-11-19T14:02:34.249Z,32.50
2022-11-19T14:05:40.541Z,20.40
2022-11-19T14:08:29.656Z,20.00
2022-11-19T14:11:16.266Z,33.40
2022-11-19T14:14:32.080Z,39.50
2022-11-19T14:17:35.071Z,37.20
2022-11-19T14:20:52.869Z,40.70
2022-11-19T14:24:06.628Z,25.30
2022-11-19T14:27:17.915Z,14.60
2022-11-19T14:30:00.584Z,28.60
2022-11-19T14:32:41.632Z,34.80
2022-11-19T14:35:42.014Z,25.00
2022-11-19T14:38:36.043Z,34.90
2022-11-19T14:41:22.288Z,38.80
2022-11-19T14:44:10.256Z,59.50
2022-11-19T14:46:45.496Z,39.20
2022-11-19T14:49:38.120Z,39.10
2022-11-19T14:52:22.724Z,48.30
2022-11-19T14:54:58.686Z,39.50
2022-11-19T14:57:34.159Z,45.30
2022-11-19T15:00:28.384Z,43.90
2022-11-19T15:03:01.938Z,27.10
2022-11-19T15:05:36.717Z,36.60
2022-11-19T15:08:31.215Z,37.10
2022-11-19T15:11:09.782Z,27.60
2022-11-19T15:13:42.636Z,41.80
2022-11-19T15:16:18.620Z,27.00
2022-11-19T15:19:22.876Z,24.70
2022-11-19T15:22:18.568Z,26.60
2022-11-19T15:25:15.093Z,25.60
2022-11-19T15:28:16.069Z,28.70
2022-11-19T15:30:58.324Z,30.80
2022-11-19T15:33:55.247Z,18.50
2022-11-19T15:36:41.127Z,15.00
2022-11-19T15:39:17.887Z,17.00
2022-11-19T15:42:03.854Z,26.10
2022-11-19T15:44:47.646Z,33.70
2022-11-19T15:47:24.507Z,43.70
2022-11-19T15:49:58.791Z,45.30
2022-11-19T15:52:33.289Z,58.10
2022-11-19T15:55:19.002Z,63.90
2022-11-19T15:57:55.991Z,36.40
2022-11-19T16:00:29.553Z,38.30
2022-11-19T16:03:02.058Z,43.90
2022-11-19T16:05:34.763Z,178.90
2022-11-19T16:08:12.234Z,45.10
2022-11-19T16:10:47.522Z,25.80
2022-11-19T16:13:45.599Z,17.70
2022-11-19T16:16:40.321Z,24.90
2022-11-19T16:19:16.277Z,24.40
2022-11-19T16:21:52.360Z,23.50
2022-11-19T16:24:45.068Z,18.90
2022-11-19T16:27:23.914Z,22.00
2022-11-19T16:29:56.081Z,21.90
2022-11-19T16:32:29.476Z,26.70
2022-11-19T16:35:20.822Z,32.90
2022-11-19T16:37:53.654Z,23.20
2022-11-19T16:40:26.512Z,29.90
2022-11-19T16:43:01.471Z,29.90
2022-11-19T16:48:05.245Z,28.00
2022-11-19T16:50:45.338Z,35.20
2022-11-19T16:53:48.128Z,37.70
2022-11-19T16:56:20.547Z,33.60
2022-11-19T16:58:56.071Z,28.40
2022-11-19T17:01:29.921Z,30.70
2022-11-19T17:04:07.551Z,23.80
2022-11-19T17:06:40.227Z,22.40
2022-11-19T17:09:33.021Z,69.50
2022-11-19T17:12:22.311Z,99.00
2022-11-19T17:14:58.256Z,131.60
2022-11-19T17:17:40.447Z,56.60
2022-11-19T17:21:01.117Z,64.00
2022-11-19T17:23:36.996Z,32.50
2022-11-19T17:26:16.666Z,31.70
2022-11-19T17:28:51.546Z,26.30
2022-11-19T17:31:26.396Z,27.30
2022-11-19T17:33:59.878Z,33.30
2022-11-19T17:36:32.174Z,29.60
2022-11-19T17:39:06.724Z,36.80
2022-11-19T17:41:56.401Z,27.60
2022-11-19T17:44:34.892Z,29.30
2022-11-19T17:47:21.886Z,25.30
2022-11-19T17:49:55.305Z,29.80
2022-11-19T17:52:29.521Z,35.70
2022-11-19T17:55:15.079Z,38.00
2022-11-19T17:57:47.375Z,28.30
2022-11-19T18:00:19.968Z,25.30
2022-11-19T18:02:51.921Z,44.00
2022-11-19T18:05:26.977Z,36.90
2022-11-19T18:10:29.419Z,25.40
2022-11-19T18:13:01.563Z,28.20
2022-11-19T18:15:33.500Z,25.60
2022-11-19T18:18:05.744Z,27.70
2022-11-19T18:20:38.552Z,22.40
2022-11-19T18:23:14.765Z,23.40
2022-11-19T18:25:46.679Z,27.40
2022-11-19T18:28:19.231Z,24.20
2022-11-19T18:30:51.155Z,28.30
2022-11-19T18:33:23.081Z,25.40
2022-11-19T18:35:55.019Z,18.80
2022-11-19T18:38:26.907Z,22.10
2022-11-19T18:40:58.980Z,34.10
2022-11-19T18:43:48.553Z,38.00
2022-11-19T18:46:20.514Z,26.00
2022-11-19T18:48:53.739Z,26.50
2022-11-19T18:51:27.433Z,33.50
2022-11-19T18:53:59.447Z,79.60
2022-11-19T18:56:31.563Z,84.20
2022-11-19T18:59:05.149Z,60.30
2022-11-19T19:01:37.143Z,100.20
2022-11-19T19:04:10.245Z,80.60
2022-11-19T19:06:43.054Z,64.40
2022-11-19T19:09:20.495Z,43.70
2022-11-19T19:12:13.764Z,134.60
2022-11-19T19:14:48.080Z,84.60
2022-11-19T19:17:20.651Z,87.60
2022-11-19T19:19:52.540Z,63.50
2022-11-19T19:22:24.477Z,66.70
2022-11-19T19:24:58.288Z,58.00
2022-11-19T19:27:30.582Z,98.30
2022-11-19T19:30:02.775Z,41.50
2022-11-19T19:32:34.713Z,72.10
2022-11-19T19:35:08.207Z,55.10
2022-11-19T19:37:42.126Z,35.60
2022-11-19T19:40:16.147Z,36.10
2022-11-19T19:42:48.077Z,41.50
2022-11-19T19:45:19.954Z,29.60
2022-11-19T19:47:52.203Z,28.10
2022-11-19T19:50:24.140Z,37.50
2022-11-19T19:52:58.152Z,48.50
2022-11-19T19:55:30.141Z,25.70
2022-11-19T19:58:07.382Z,38.50
2022-11-19T20:00:39.656Z,44.80
2022-11-19T20:03:15.653Z,35.80
2022-11-19T20:05:51.819Z,78.60
2022-11-19T20:08:23.757Z,163.60
2022-11-19T20:10:56.180Z,119.10
2022-11-19T20:13:32.259Z,94.60
2022-11-19T20:16:11.896Z,58.40
2022-11-19T20:18:48.044Z,82.20
2022-11-19T20:21:22.644Z,90.90
2022-11-19T20:23:55.538Z,68.20
2022-11-19T20:26:29.161Z,40.00
2022-11-19T20:29:03.066Z,30.20
2022-11-19T20:31:35.799Z,34.30
2022-11-19T20:34:07.941Z,36.50
2022-11-19T20:36:40.083Z,36.50
2022-11-19T20:39:12.750Z,46.60
2022-11-19T20:42:02.521Z,34.80
2022-11-19T20:44:34.687Z,38.80
2022-11-19T20:47:06.677Z,32.40
2022-11-19T20:49:39.740Z,27.30
2022-11-19T20:52:13.403Z,31.30
2022-11-19T20:54:45.462Z,26.60
2022-11-19T20:57:18.959Z,25.30
2022-11-19T20:59:51.032Z,34.00
2022-11-19T21:02:23.162Z,26.90
2022-11-19T21:04:56.435Z,30.50
2022-11-19T21:07:28.428Z,26.00
2022-11-19T21:10:06.300Z,31.90
2022-11-19T21:13:00.693Z,49.40
2022-11-19T21:15:35.884Z,43.00
2022-11-19T21:18:08.100Z,40.60
2022-11-19T21:20:40.218Z,28.90
2022-11-19T21:23:12.334Z,138.30
2022-11-19T21:25:44.681Z,52.70
2022-11-19T21:28:16.699Z,45.40
2022-11-19T21:30:53.630Z,36.80
2022-11-19T21:33:27.203Z,33.50
2022-11-19T21:36:00.780Z,41.80
2022-11-19T21:38:33.049Z,63.00
2022-11-19T21:41:05.762Z,54.40
2022-11-19T21:43:38.715Z,51.40
2022-11-19T21:46:11.011Z,35.50
2022-11-19T21:48:43.607Z,47.00
2022-11-19T21:51:17.954Z,44.30
2022-11-19T21:53:56.168Z,33.10
2022-11-19T21:56:33.796Z,36.40
2022-11-19T21:59:09.775Z,46.50
2022-11-19T22:01:41.742Z,37.60
2022-11-19T22:04:15.512Z,32.60
2022-11-19T22:06:47.507Z,28.90
2022-11-19T22:09:19.732Z,28.70
2022-11-19T22:11:51.895Z,36.10
2022-11-19T22:14:24.015Z,32.90
2022-11-19T22:16:55.976Z,30.80
2022-11-19T22:19:27.938Z,25.60
2022-11-19T22:22:00.262Z,40.00
2022-11-19T22:24:32.198Z,41.80
2022-11-19T22:27:04.318Z,40.40
2022-11-19T22:29:36.841Z,35.30
2022-11-19T22:32:09.088Z,54.50
2022-11-19T22:34:41.025Z,40.20
2022-11-19T22:37:13.065Z,39.40
2022-11-19T22:39:45.228Z,30.90
2022-11-19T22:42:17.221Z,39.90
2022-11-19T22:44:49.194Z,40.60
2022-11-19T22:47:21.102Z,33.30
2022-11-19T22:49:52.922Z,36.40
2022-11-19T22:52:24.819Z,35.40
2022-11-19T22:54:56.758Z,43.40
2022-11-19T22:57:28.980Z,55.00
2022-11-19T23:00:00.890Z,35.30
2022-11-19T23:02:33.057Z,32.10
2022-11-19T23:05:05.381Z,30.70
2022-11-19T23:07:37.557Z,39.70
2022-11-19T23:10:10.989Z,37.70
2022-11-19T23:13:00.239Z,31.40
2022-11-19T23:15:32.563Z,34.20
2022-11-19T23:18:04.785Z,30.60
2022-11-19T23:20:36.820Z,28.00
2022-11-19T23:23:08.762Z,38.70
2022-11-19T23:25:40.735Z,26.90
2022-11-19T23:28:12.706Z,26.50
2022-11-19T23:30:44.650Z,25.20
2022-11-19T23:33:16.691Z,28.90
2022-11-19T23:35:49.189Z,30.20
2022-11-19T23:38:21.130Z,29.20
2022-11-19T23:41:01.386Z,29.60
2022-11-19T23:43:34.066Z,29.80
2022-11-19T23:46:11.179Z,34.50
2022-11-19T23:48:46.516Z,30.90
2022-11-19T23:51:20.662Z,36.00
2022-11-19T23:53:53.060Z,33.00
2022-11-19T23:56:25.991Z,30.40
2022-11-19T23:58:58.184Z,30.90
